Time;durP1;ratioP1;P1;durP2;ratioP2;P2;SDS_P1;SDS_P2;PMS_P1;PMS_P2;Temp;Humidity;BMP_temperature;BMP_pressure;BME280_temperature;BME280_humidity;BME280_pressure;Samples;Min_cycle;Max_cycle;Signal;HPM_P1;HPM_P2
2022/03/27 00:00:32;;;;;;;34.50;21.10;;;;;;;;;;5054433;28;20394;-76
2022/03/27 00:02:58;;;;;;;32.00;19.70;;;;;;;;;;5054675;28;20955;-76
2022/03/27 00:05:24;;;;;;;32.67;19.70;;;;;;;;;;5054112;28;20441;-75
2022/03/27 00:07:50;;;;;;;33.60;20.50;;;;;;;;;;5054210;28;20405;-76
2022/03/27 00:10:16;;;;;;;40.93;20.80;;;;;;;;;;5054096;28;20402;-76
2022/03/27 00:12:44;;;;;;;39.10;23.00;;;;;;;;;;5052870;28;20899;-75
2022/03/27 00:15:10;;;;;;;37.97;20.27;;;;;;;;;;5054251;28;20432;-76
2022/03/27 00:17:36;;;;;;;44.13;23.27;;;;;;;;;;5054453;28;20397;-76
2022/03/27 00:20:04;;;;;;;39.37;22.73;;;;;;;;;;5053957;28;20440;-76
2022/03/27 00:22:30;;;;;;;51.90;25.50;;;;;;;;;;5054249;28;20405;-75
2022/03/27 00:24:57;;;;;;;40.17;20.97;;;;;;;;;;5053997;28;20833;-76
2022/03/27 00:27:23;;;;;;;40.17;20.47;;;;;;;;;;5053816;28;20398;-76
2022/03/27 00:29:50;;;;;;;36.30;21.10;;;;;;;;;;5053784;28;20409;-76
2022/03/27 00:32:16;;;;;;;36.73;20.63;;;;;;;;;;5053784;28;20772;-76
2022/03/27 00:34:43;;;;;;;32.70;19.00;;;;;;;;;;5053494;28;20484;-75
2022/03/27 00:37:09;;;;;;;38.17;22.60;;;;;;;;;;5053578;28;20405;-76
2022/03/27 00:39:35;;;;;;;39.87;22.90;;;;;;;;;;5053451;28;20409;-75
2022/03/27 00:42:01;;;;;;;38.60;22.00;;;;;;;;;;5053622;28;20916;-76
2022/03/27 00:44:27;;;;;;;38.00;22.23;;;;;;;;;;5053314;28;20941;-75
2022/03/27 00:46:53;;;;;;;40.10;22.00;;;;;;;;;;5053453;28;20878;-76
2022/03/27 00:49:20;;;;;;;37.43;21.00;;;;;;;;;;5053638;28;20924;-76
2022/03/27 00:51:46;;;;;;;41.97;20.97;;;;;;;;;;5052115;28;20418;-75
2022/03/27 00:54:12;;;;;;;36.73;20.43;;;;;;;;;;5053037;28;21054;-76
2022/03/27 00:56:38;;;;;;;35.03;21.50;;;;;;;;;;5053199;28;20402;-75
2022/03/27 00:59:04;;;;;;;36.70;20.60;;;;;;;;;;5053158;28;20397;-76
2022/03/27 01:01:35;;;;;;;37.77;19.73;;;;;;;;;;5053032;28;20769;-75
2022/03/27 01:04:01;;;;;;;37.83;21.90;;;;;;;;;;5053357;28;20806;-75
2022/03/27 01:06:35;;;;;;;33.13;19.80;;;;;;;;;;5052931;28;20398;-76
2022/03/27 01:11:47;;;;;;;39.10;21.50;;;;;;;;;;5053200;28;20431;-75
2022/03/27 01:14:14;;;;;;;55.57;28.47;;;;;;;;;;5052837;28;20472;-76
2022/03/27 01:16:41;;;;;;;38.43;22.73;;;;;;;;;;5052850;28;20463;-75
2022/03/27 01:19:09;;;;;;;39.77;23.30;;;;;;;;;;5052964;28;20477;-75
2022/03/27 01:21:46;;;;;;;37.83;21.90;;;;;;;;;;5053165;28;20874;-77
2022/03/27 01:24:13;;;;;;;35.10;21.50;;;;;;;;;;5052704;28;20504;-76
2022/03/27 01:26:39;;;;;;;42.67;22.83;;;;;;;;;;5053155;28;20406;-76
2022/03/27 01:29:06;;;;;;;38.10;22.20;;;;;;;;;;5053245;28;20774;-76
2022/03/27 01:31:32;;;;;;;36.67;22.87;;;;;;;;;;5052707;28;20416;-76
2022/03/27 01:33:58;;;;;;;36.67;20.97;;;;;;;;;;5052529;28;20444;-76
2022/03/27 01:36:25;;;;;;;36.10;22.63;;;;;;;;;;5052756;28;20406;-76
2022/03/27 01:38:52;;;;;;;32.60;19.37;;;;;;;;;;5052710;28;20397;-76
2022/03/27 01:41:18;;;;;;;35.40;20.73;;;;;;;;;;5052772;28;20402;-76
2022/03/27 01:43:44;;;;;;;42.83;20.00;;;;;;;;;;5052703;28;20421;-76
2022/03/27 01:46:10;;;;;;;35.60;20.37;;;;;;;;;;5043785;28;20445;-76
2022/03/27 01:48:36;;;;;;;37.70;22.20;;;;;;;;;;5038829;28;20430;-76
2022/03/27 01:51:03;;;;;;;40.20;22.80;;;;;;;;;;5032819;28;20418;-75
2022/03/27 01:53:29;;;;;;;33.60;21.80;;;;;;;;;;5032527;28;20533;-75
2022/03/27 01:55:55;;;;;;;32.03;19.47;;;;;;;;;;5032647;28;20430;-76
2022/03/27 01:58:22;;;;;;;37.17;22.20;;;;;;;;;;5036715;28;20402;-76
2022/03/27 02:00:48;;;;;;;36.50;19.83;;;;;;;;;;5036760;28;20391;-75
2022/03/27 02:03:14;;;;;;;34.63;20.80;;;;;;;;;;5036632;28;20410;-75
2022/03/27 02:05:40;;;;;;;34.53;21.20;;;;;;;;;;5036457;28;20492;-76
2022/03/27 02:08:07;;;;;;;39.97;24.20;;;;;;;;;;5036476;28;20407;-76
2022/03/27 02:10:33;;;;;;;36.57;21.60;;;;;;;;;;5036552;28;20424;-76
2022/03/27 02:12:59;;;;;;;46.60;23.20;;;;;;;;;;5036530;28;20473;-76
2022/03/27 02:15:25;;;;;;;43.63;24.43;;;;;;;;;;5036195;28;20797;-75
2022/03/27 02:17:51;;;;;;;41.90;25.70;;;;;;;;;;5036366;28;20770;-76
2022/03/27 02:20:17;;;;;;;41.13;23.03;;;;;;;;;;5035976;28;20402;-76
2022/03/27 02:22:44;;;;;;;40.77;24.53;;;;;;;;;;5036218;28;20442;-76
2022/03/27 02:25:10;;;;;;;48.30;22.53;;;;;;;;;;5036034;28;20965;-76
2022/03/27 02:27:36;;;;;;;40.20;22.60;;;;;;;;;;5036172;28;20817;-75
2022/03/27 02:30:03;;;;;;;39.60;20.87;;;;;;;;;;5035953;28;20425;-76
2022/03/27 02:32:29;;;;;;;36.77;21.57;;;;;;;;;;5036046;28;20402;-76
2022/03/27 02:34:55;;;;;;;36.13;21.20;;;;;;;;;;5035873;28;20424;-76
2022/03/27 02:37:21;;;;;;;31.70;20.33;;;;;;;;;;5034645;28;20403;-76
2022/03/27 02:39:47;;;;;;;33.40;19.17;;;;;;;;;;5035848;28;20448;-76
2022/03/27 02:42:13;;;;;;;31.17;18.67;;;;;;;;;;5035852;28;20395;-76
2022/03/27 02:44:39;;;;;;;33.27;19.83;;;;;;;;;;5035786;28;20968;-76
2022/03/27 02:47:06;;;;;;;30.60;18.13;;;;;;;;;;5035797;28;20421;-76
2022/03/27 02:49:32;;;;;;;33.40;18.67;;;;;;;;;;5035682;28;20487;-75
2022/03/27 02:51:58;;;;;;;30.93;18.40;;;;;;;;;;5035828;28;20395;-75
2022/03/27 02:54:24;;;;;;;30.60;17.10;;;;;;;;;;5035319;28;20450;-75
2022/03/27 02:56:50;;;;;;;28.00;16.90;;;;;;;;;;5035676;28;20398;-75
2022/03/27 02:59:16;;;;;;;29.13;16.80;;;;;;;;;;5035507;28;20395;-75
2022/03/27 03:01:42;;;;;;;30.70;18.23;;;;;;;;;;5035468;28;20525;-74
2022/03/27 03:04:08;;;;;;;32.87;19.10;;;;;;;;;;5035342;28;20418;-76
2022/03/27 03:06:35;;;;;;;32.30;18.07;;;;;;;;;;5035444;28;20426;-75
2022/03/27 03:09:01;;;;;;;36.33;19.23;;;;;;;;;;5034169;28;20403;-75
2022/03/27 03:11:27;;;;;;;32.23;18.03;;;;;;;;;;5035154;28;20453;-75
2022/03/27 03:13:53;;;;;;;35.27;18.73;;;;;;;;;;5034995;28;20442;-75
2022/03/27 03:16:20;;;;;;;30.37;17.80;;;;;;;;;;5035479;28;20406;-75
2022/03/27 03:18:46;;;;;;;26.73;17.10;;;;;;;;;;5035407;28;20473;-75
2022/03/27 03:21:13;;;;;;;38.33;17.63;;;;;;;;;;5035349;28;20406;-75
2022/03/27 03:23:39;;;;;;;37.90;19.67;;;;;;;;;;5033791;28;20468;-75
2022/03/27 03:26:05;;;;;;;34.00;18.77;;;;;;;;;;5034378;28;20426;-77
2022/03/27 03:28:31;;;;;;;35.40;19.97;;;;;;;;;;5042001;28;20414;-76
2022/03/27 03:30:58;;;;;;;30.70;17.53;;;;;;;;;;5054850;28;20513;-75
2022/03/27 03:33:26;;;;;;;31.60;17.97;;;;;;;;;;5052996;28;20441;-75
2022/03/27 03:35:52;;;;;;;38.20;18.97;;;;;;;;;;5054709;28;20770;-75
2022/03/27 03:38:18;;;;;;;33.90;17.90;;;;;;;;;;5054400;28;20459;-75
2022/03/27 03:40:44;;;;;;;34.13;17.87;;;;;;;;;;5054423;28;20416;-75
2022/03/27 03:43:11;;;;;;;36.03;18.57;;;;;;;;;;5054708;28;20460;-75
2022/03/27 03:45:37;;;;;;;33.77;18.10;;;;;;;;;;5054530;28;21059;-75
2022/03/27 03:48:06;;;;;;;34.23;16.73;;;;;;;;;;5054864;28;20491;-75
2022/03/27 03:50:35;;;;;;;32.57;17.13;;;;;;;;;;5054600;28;20776;-75
2022/03/27 03:53:01;;;;;;;31.53;17.33;;;;;;;;;;5054446;28;20437;-75
2022/03/27 03:55:28;;;;;;;34.90;19.30;;;;;;;;;;5054430;28;20467;-75
2022/03/27 03:57:54;;;;;;;42.00;20.37;;;;;;;;;;5054146;28;20428;-75
2022/03/27 04:00:20;;;;;;;35.90;19.00;;;;;;;;;;5053071;28;20410;-75
2022/03/27 04:02:46;;;;;;;35.23;18.27;;;;;;;;;;5047215;28;20423;-75
2022/03/27 04:05:12;;;;;;;35.50;19.13;;;;;;;;;;5051694;28;20429;-75
2022/03/27 04:07:38;;;;;;;39.13;18.10;;;;;;;;;;5054589;28;20401;-75
2022/03/27 04:10:04;;;;;;;31.30;16.97;;;;;;;;;;5051585;28;20429;-75
2022/03/27 04:12:31;;;;;;;25.33;16.93;;;;;;;;;;5054157;28;20428;-75
2022/03/27 04:14:58;;;;;;;32.80;17.30;;;;;;;;;;5054067;28;20457;-75
2022/03/27 04:17:24;;;;;;;25.30;14.40;;;;;;;;;;5052979;28;20839;-75
2022/03/27 04:19:50;;;;;;;28.93;16.30;;;;;;;;;;5053774;28;20437;-76
2022/03/27 04:22:16;;;;;;;30.93;17.30;;;;;;;;;;5060247;28;20405;-75
2022/03/27 04:24:43;;;;;;;33.13;17.80;;;;;;;;;;5058868;28;20512;-75
2022/03/27 04:27:09;;;;;;;25.73;16.40;;;;;;;;;;5053982;28;20485;-75
2022/03/27 04:29:35;;;;;;;29.73;17.23;;;;;;;;;;5053947;28;20408;-75
2022/03/27 04:32:01;;;;;;;47.37;22.13;;;;;;;;;;5053943;28;20402;-75
2022/03/27 04:34:27;;;;;;;28.97;16.20;;;;;;;;;;5054020;28;20812;-75
2022/03/27 04:36:53;;;;;;;32.20;17.90;;;;;;;;;;5053943;28;20433;-75
2022/03/27 04:39:20;;;;;;;33.37;17.00;;;;;;;;;;5053892;28;20420;-75
2022/03/27 04:41:46;;;;;;;30.07;16.80;;;;;;;;;;5053612;28;20416;-75
2022/03/27 04:46:52;;;;;;;24.27;15.53;;;;;;;;;;5053568;22;20504;-77
2022/03/27 04:49:18;;;;;;;27.47;16.40;;;;;;;;;;5034787;28;20429;-77
2022/03/27 04:51:44;;;;;;;31.27;15.97;;;;;;;;;;5034844;28;20394;-77
2022/03/27 04:54:10;;;;;;;31.80;16.57;;;;;;;;;;5034268;28;20445;-77
2022/03/27 04:56:36;;;;;;;28.10;16.80;;;;;;;;;;5034307;28;20467;-77
2022/03/27 04:59:02;;;;;;;29.13;17.10;;;;;;;;;;5033851;28;20402;-77
2022/03/27 05:01:28;;;;;;;30.03;16.70;;;;;;;;;;5034282;28;20403;-77
2022/03/27 05:03:54;;;;;;;28.60;17.40;;;;;;;;;;5034181;28;20456;-77
2022/03/27 05:06:20;;;;;;;28.53;15.43;;;;;;;;;;5033707;28;20418;-77
2022/03/27 05:08:47;;;;;;;33.80;17.87;;;;;;;;;;5033707;28;20402;-77
2022/03/27 05:11:13;;;;;;;34.90;17.47;;;;;;;;;;5033988;28;20468;-77
2022/03/27 05:13:39;;;;;;;29.20;17.13;;;;;;;;;;5016525;28;20957;-77
2022/03/27 05:16:05;;;;;;;24.00;16.40;;;;;;;;;;5033968;28;20436;-77
2022/03/27 05:18:31;;;;;;;28.33;16.53;;;;;;;;;;5033597;28;20471;-77
2022/03/27 05:20:57;;;;;;;29.03;15.47;;;;;;;;;;5034123;28;20452;-77
2022/03/27 05:23:23;;;;;;;28.97;15.90;;;;;;;;;;5033920;28;20390;-77
2022/03/27 05:25:50;;;;;;;27.97;16.63;;;;;;;;;;5034322;28;20427;-77
2022/03/27 05:28:18;;;;;;;23.97;16.47;;;;;;;;;;5034182;28;20496;-77
2022/03/27 05:30:44;;;;;;;31.77;18.70;;;;;;;;;;5033999;28;20399;-78
2022/03/27 05:33:11;;;;;;;23.67;14.73;;;;;;;;;;5033290;28;20446;-77
2022/03/27 05:35:37;;;;;;;32.63;16.10;;;;;;;;;;5033419;28;20521;-76
2022/03/27 05:38:04;;;;;;;29.30;15.63;;;;;;;;;;5033395;28;20414;-78
2022/03/27 05:40:30;;;;;;;32.73;16.80;;;;;;;;;;5032887;28;20438;-77
2022/03/27 05:42:56;;;;;;;30.70;17.10;;;;;;;;;;5033114;28;20406;-77
2022/03/27 05:45:23;;;;;;;25.87;14.90;;;;;;;;;;5032823;28;20451;-77
2022/03/27 05:47:49;;;;;;;24.57;14.47;;;;;;;;;;5033082;28;20411;-77
2022/03/27 05:50:18;;;;;;;28.03;15.43;;;;;;;;;;5033441;28;20411;-78
2022/03/27 05:52:44;;;;;;;30.47;16.87;;;;;;;;;;5015755;28;20459;-77
2022/03/27 05:55:12;;;;;;;31.60;15.87;;;;;;;;;;5034763;28;20442;-78
2022/03/27 05:57:38;;;;;;;45.73;17.50;;;;;;;;;;5033608;28;20402;-77
2022/03/27 06:00:06;;;;;;;28.60;16.17;;;;;;;;;;5033355;28;20394;-77
2022/03/27 06:02:32;;;;;;;32.53;16.30;;;;;;;;;;5033114;28;20916;-76
2022/03/27 06:04:58;;;;;;;33.77;18.07;;;;;;;;;;5033074;28;20422;-77
2022/03/27 06:07:25;;;;;;;30.57;15.80;;;;;;;;;;5033119;28;20497;-77
2022/03/27 06:09:51;;;;;;;26.70;15.70;;;;;;;;;;5033352;28;20407;-77
2022/03/27 06:12:17;;;;;;;30.00;17.90;;;;;;;;;;5033458;28;20406;-78
2022/03/27 06:14:43;;;;;;;36.13;16.27;;;;;;;;;;5032938;28;20465;-77
2022/03/27 06:17:09;;;;;;;30.93;16.23;;;;;;;;;;5033206;28;20398;-77
2022/03/27 06:19:35;;;;;;;33.30;17.53;;;;;;;;;;5033281;28;20875;-77
2022/03/27 06:22:02;;;;;;;34.00;15.97;;;;;;;;;;5035359;28;20430;-78
2022/03/27 06:24:28;;;;;;;26.20;15.17;;;;;;;;;;5038208;28;20459;-78
2022/03/27 06:26:54;;;;;;;32.57;15.30;;;;;;;;;;5034220;28;20406;-78
2022/03/27 06:29:21;;;;;;;28.23;15.70;;;;;;;;;;5032482;28;20402;-77
2022/03/27 06:31:48;;;;;;;36.27;19.20;;;;;;;;;;5014824;28;20413;-77
2022/03/27 06:34:14;;;;;;;24.70;14.40;;;;;;;;;;5032468;28;20822;-77
2022/03/27 06:36:42;;;;;;;25.67;15.83;;;;;;;;;;5032358;28;20911;-77
2022/03/27 06:39:08;;;;;;;28.63;15.97;;;;;;;;;;5033453;28;20490;-79
2022/03/27 06:41:34;;;;;;;31.97;17.90;;;;;;;;;;5015339;28;20402;-77
2022/03/27 06:44:00;;;;;;;22.97;14.30;;;;;;;;;;5035717;28;20414;-77
2022/03/27 06:46:27;;;;;;;23.93;15.47;;;;;;;;;;5037085;28;20450;-78
2022/03/27 06:48:54;;;;;;;27.17;17.10;;;;;;;;;;5038807;28;20845;-77
2022/03/27 06:51:20;;;;;;;26.23;15.23;;;;;;;;;;5039956;28;20411;-77
2022/03/27 06:53:46;;;;;;;25.93;16.50;;;;;;;;;;5035902;28;20454;-77
2022/03/27 06:56:12;;;;;;;30.10;16.63;;;;;;;;;;5017871;28;20423;-76
2022/03/27 06:58:38;;;;;;;26.23;15.60;;;;;;;;;;5035887;28;20407;-77
2022/03/27 07:03:49;;;;;;;28.43;15.50;;;;;;;;;;5036465;28;20391;-77
2022/03/27 07:06:15;;;;;;;29.63;18.00;;;;;;;;;;5035775;28;20419;-77
2022/03/27 07:08:42;;;;;;;24.90;16.97;;;;;;;;;;5037937;28;20882;-77
2022/03/27 07:11:08;;;;;;;29.80;16.90;;;;;;;;;;5036051;28;20410;-77
2022/03/27 07:13:34;;;;;;;28.33;15.70;;;;;;;;;;5035830;28;20453;-77
2022/03/27 07:16:00;;;;;;;28.27;17.03;;;;;;;;;;5036109;28;20423;-77
2022/03/27 07:18:26;;;;;;;26.63;15.47;;;;;;;;;;5035614;28;20409;-77
2022/03/27 07:20:52;;;;;;;26.10;17.00;;;;;;;;;;5035630;28;20426;-77
2022/03/27 07:23:19;;;;;;;27.57;15.77;;;;;;;;;;5036426;28;20470;-78
2022/03/27 07:25:46;;;;;;;25.57;15.60;;;;;;;;;;5035491;28;20797;-77
2022/03/27 07:28:13;;;;;;;27.00;15.67;;;;;;;;;;5035268;28;20421;-77
2022/03/27 07:30:41;;;;;;;27.10;16.63;;;;;;;;;;5037024;28;20411;-78
2022/03/27 07:33:07;;;;;;;27.07;16.20;;;;;;;;;;5037369;28;20864;-77
2022/03/27 07:35:34;;;;;;;31.27;16.57;;;;;;;;;;5036614;28;20434;-78
2022/03/27 07:38:01;;;;;;;25.97;14.60;;;;;;;;;;5037967;28;20532;-78
2022/03/27 07:40:30;;;;;;;26.40;15.70;;;;;;;;;;5021014;28;20407;-78
2022/03/27 07:42:57;;;;;;;36.47;16.57;;;;;;;;;;5039781;28;20434;-78
2022/03/27 07:45:24;;;;;;;26.27;16.00;;;;;;;;;;5021171;28;20947;-78
2022/03/27 07:47:51;;;;;;;21.90;14.53;;;;;;;;;;5039086;28;20486;-78
2022/03/27 07:50:18;;;;;;;28.30;16.10;;;;;;;;;;5040249;28;20776;-78
2022/03/27 07:52:44;;;;;;;23.33;14.63;;;;;;;;;;5036515;28;20442;-77
2022/03/27 07:55:11;;;;;;;26.17;16.30;;;;;;;;;;5034504;28;20438;-77
2022/03/27 07:57:37;;;;;;;28.40;16.00;;;;;;;;;;5017522;28;20449;-77
2022/03/27 08:00:04;;;;;;;21.97;15.40;;;;;;;;;;5037069;28;20402;-78
2022/03/27 08:02:31;;;;;;;24.30;14.53;;;;;;;;;;5039849;28;20900;-78
2022/03/27 08:04:57;;;;;;;27.27;15.53;;;;;;;;;;5035587;28;20430;-77
2022/03/27 08:07:23;;;;;;;26.57;16.70;;;;;;;;;;5036330;28;20891;-77
2022/03/27 08:09:49;;;;;;;28.90;17.00;;;;;;;;;;5036625;28;20903;-77
2022/03/27 08:12:15;;;;;;;23.83;15.50;;;;;;;;;;5035753;28;20398;-78
2022/03/27 08:14:43;;;;;;;25.47;15.17;;;;;;;;;;5036088;28;20469;-77
2022/03/27 08:17:10;;;;;;;22.60;15.63;;;;;;;;;;5042288;28;20438;-78
2022/03/27 08:19:36;;;;;;;23.97;15.57;;;;;;;;;;5022992;28;20425;-78
2022/03/27 08:22:02;;;;;;;22.97;14.43;;;;;;;;;;5040964;28;20833;-78
2022/03/27 08:24:29;;;;;;;26.47;17.07;;;;;;;;;;5037381;28;20410;-78
2022/03/27 08:27:00;;;;;;;25.33;15.67;;;;;;;;;;5017753;28;20460;-77
2022/03/27 08:29:27;;;;;;;22.33;15.03;;;;;;;;;;5034951;28;20379;-77
2022/03/27 08:31:54;;;;;;;29.30;17.13;;;;;;;;;;5034581;28;20425;-77
2022/03/27 08:34:21;;;;;;;25.17;14.87;;;;;;;;;;5034327;28;20822;-77
2022/03/27 08:36:47;;;;;;;28.40;16.07;;;;;;;;;;5034399;28;20489;-77
2022/03/27 08:39:14;;;;;;;24.10;16.40;;;;;;;;;;5033900;28;20410;-77
2022/03/27 08:41:43;;;;;;;26.70;15.77;;;;;;;;;;5034886;28;20398;-77
2022/03/27 08:44:13;;;;;;;27.23;15.73;;;;;;;;;;5016702;28;20410;-77
2022/03/27 08:46:42;;;;;;;22.53;14.23;;;;;;;;;;5016326;28;20472;-77
2022/03/27 08:49:12;;;;;;;24.90;14.53;;;;;;;;;;5034463;28;20409;-77
2022/03/27 08:51:41;;;;;;;26.93;15.47;;;;;;;;;;5033937;28;20398;-77
2022/03/27 08:54:09;;;;;;;25.57;14.90;;;;;;;;;;5016411;28;20454;-77
2022/03/27 08:56:35;;;;;;;26.87;15.40;;;;;;;;;;5016139;28;20414;-77
2022/03/27 08:59:05;;;;;;;23.50;15.50;;;;;;;;;;5034396;28;20407;-77
2022/03/27 09:01:31;;;;;;;26.00;16.70;;;;;;;;;;5034692;28;20398;-78
2022/03/27 09:03:58;;;;;;;31.57;16.43;;;;;;;;;;5034948;28;20806;-78
2022/03/27 09:06:25;;;;;;;22.40;15.13;;;;;;;;;;5034273;28;20422;-77
2022/03/27 09:08:51;;;;;;;22.97;15.17;;;;;;;;;;5017376;28;20409;-79
2022/03/27 09:11:18;;;;;;;22.43;15.00;;;;;;;;;;5034349;28;20467;-76
2022/03/27 09:13:48;;;;;;;29.97;15.63;;;;;;;;;;5034256;28;20458;-77
2022/03/27 09:16:14;;;;;;;27.87;14.73;;;;;;;;;;5034859;28;20430;-77
2022/03/27 09:18:42;;;;;;;27.67;16.33;;;;;;;;;;5034750;28;20418;-77
2022/03/27 09:21:08;;;;;;;23.37;16.17;;;;;;;;;;5034679;28;20405;-77
2022/03/27 09:23:38;;;;;;;29.93;16.40;;;;;;;;;;5036021;28;20406;-78
2022/03/27 09:26:09;;;;;;;24.37;16.20;;;;;;;;;;5026558;28;20434;-78
2022/03/27 09:28:37;;;;;;;28.13;16.13;;;;;;;;;;5024613;28;20470;-78
2022/03/27 09:31:18;;;;;;;25.47;16.53;;;;;;;;;;5043209;28;20418;-77
2022/03/27 09:33:48;;;;;;;26.70;16.13;;;;;;;;;;5034471;28;20462;-78
2022/03/27 09:36:18;;;;;;;23.90;15.97;;;;;;;;;;5015617;28;20437;-77
2022/03/27 09:39:03;;;;;;;25.03;15.37;;;;;;;;;;5033594;28;20402;-78
2022/03/27 09:41:31;;;;;;;30.07;17.47;;;;;;;;;;5016369;28;20905;-77
2022/03/27 09:44:01;;;;;;;25.23;16.17;;;;;;;;;;5037632;28;20403;-77
2022/03/27 09:46:28;;;;;;;26.63;16.17;;;;;;;;;;5019405;28;20450;-77
2022/03/27 09:48:57;;;;;;;27.83;15.33;;;;;;;;;;5035040;28;20403;-77
2022/03/27 09:51:23;;;;;;;26.83;16.70;;;;;;;;;;5036666;28;20409;-78
2022/03/27 09:54:00;;;;;;;25.40;15.90;;;;;;;;;;5042302;28;20974;-78
2022/03/27 09:56:30;;;;;;;22.83;14.93;;;;;;;;;;5042459;28;20433;-78
2022/03/27 09:58:57;;;;;;;26.73;15.67;;;;;;;;;;5043983;28;20502;-78
2022/03/27 10:01:24;;;;;;;28.33;17.70;;;;;;;;;;5044193;28;20398;-78
2022/03/27 10:03:59;;;;;;;24.40;15.10;;;;;;;;;;5044592;28;20652;-78
2022/03/27 10:06:29;;;;;;;27.00;15.80;;;;;;;;;;5043475;28;20434;-77
2022/03/27 10:08:55;;;;;;;27.00;16.07;;;;;;;;;;5025871;28;20476;-78
2022/03/27 10:11:23;;;;;;;28.10;16.40;;;;;;;;;;5044100;28;20401;-78
2022/03/27 10:13:52;;;;;;;28.83;17.23;;;;;;;;;;5042800;28;20509;-78
2022/03/27 10:16:22;;;;;;;34.90;16.97;;;;;;;;;;5026495;28;20488;-78
2022/03/27 10:18:49;;;;;;;25.47;15.40;;;;;;;;;;5049566;28;20417;-78
2022/03/27 10:21:15;;;;;;;25.23;15.47;;;;;;;;;;5049128;28;20409;-79
2022/03/27 10:23:44;;;;;;;29.53;17.30;;;;;;;;;;5046548;28;20434;-78
2022/03/27 10:26:10;;;;;;;25.50;16.60;;;;;;;;;;5047171;28;20426;-78
2022/03/27 10:28:38;;;;;;;29.63;17.20;;;;;;;;;;5030272;28;20414;-78
2022/03/27 10:31:04;;;;;;;30.13;16.63;;;;;;;;;;5046329;28;20407;-78
2022/03/27 10:33:30;;;;;;;27.33;17.93;;;;;;;;;;5045715;28;20795;-79
2022/03/27 10:36:09;;;;;;;29.60;17.83;;;;;;;;;;5040256;28;20417;-78
2022/03/27 10:38:42;;;;;;;33.33;16.60;;;;;;;;;;5051552;28;20402;-78
2022/03/27 10:41:14;;;;;;;25.80;15.90;;;;;;;;;;5050443;28;20810;-77
2022/03/27 10:43:59;;;;;;;26.10;16.00;;;;;;;;;;5053396;28;20433;-78
2022/03/27 10:46:27;;;;;;;31.47;17.00;;;;;;;;;;5059333;23;20492;-77
2022/03/27 10:49:09;;;;;;;24.27;16.47;;;;;;;;;;5035651;28;20464;-76
2022/03/27 10:51:37;;;;;;;30.67;17.63;;;;;;;;;;5035892;28;20744;-76
2022/03/27 10:54:07;;;;;;;22.57;15.20;;;;;;;;;;5036040;28;20489;-76
2022/03/27 10:56:35;;;;;;;24.90;16.20;;;;;;;;;;5035618;28;20450;-76
2022/03/27 10:59:12;;;;;;;26.50;15.67;;;;;;;;;;5035868;28;20401;-76
2022/03/27 11:01:41;;;;;;;27.20;16.87;;;;;;;;;;5017765;28;20402;-76
2022/03/27 11:04:11;;;;;;;31.73;17.80;;;;;;;;;;5035992;28;20418;-76
2022/03/27 11:06:39;;;;;;;26.17;16.13;;;;;;;;;;5017688;28;20418;-76
2022/03/27 11:09:06;;;;;;;21.90;15.33;;;;;;;;;;5017842;28;20417;-76
2022/03/27 11:11:40;;;;;;;20.20;14.20;;;;;;;;;;5035621;28;20485;-76
2022/03/27 11:14:07;;;;;;;25.87;15.30;;;;;;;;;;5035266;28;20626;-76
2022/03/27 11:16:36;;;;;;;24.63;15.03;;;;;;;;;;5035270;28;20431;-76
2022/03/27 11:19:03;;;;;;;25.97;14.70;;;;;;;;;;5034907;28;20919;-77
2022/03/27 11:21:29;;;;;;;25.00;14.60;;;;;;;;;;5035432;28;20398;-76
2022/03/27 11:23:56;;;;;;;18.63;12.50;;;;;;;;;;5017879;28;20833;-76
2022/03/27 11:26:22;;;;;;;24.90;14.83;;;;;;;;;;5035405;28;20802;-76
2022/03/27 11:28:53;;;;;;;23.07;13.10;;;;;;;;;;5034626;28;20809;-76
2022/03/27 11:31:25;;;;;;;25.03;14.70;;;;;;;;;;5035178;28;20410;-76
2022/03/27 11:34:07;;;;;;;23.30;13.33;;;;;;;;;;5035236;28;20537;-77
2022/03/27 11:36:34;;;;;;;21.80;14.27;;;;;;;;;;5035622;28;20423;-76
2022/03/27 11:39:04;;;;;;;23.43;14.67;;;;;;;;;;5017313;28;20994;-76
2022/03/27 11:41:44;;;;;;;23.43;14.80;;;;;;;;;;5035109;28;20457;-76
2022/03/27 11:47:20;;;;;;;18.50;12.60;;;;;;;;;;5035239;28;20402;-76
2022/03/27 11:49:48;;;;;;;25.83;15.20;;;;;;;;;;5035266;28;20395;-76
2022/03/27 11:52:18;;;;;;;21.70;14.50;;;;;;;;;;5035067;28;20410;-76
2022/03/27 11:54:46;;;;;;;19.90;13.50;;;;;;;;;;5034679;28;20538;-77
2022/03/27 11:57:13;;;;;;;25.13;13.27;;;;;;;;;;5034632;28;20410;-76
2022/03/27 11:59:46;;;;;;;29.33;13.83;;;;;;;;;;5034643;28;20453;-76
2022/03/27 12:02:12;;;;;;;21.37;14.57;;;;;;;;;;5034652;28;20485;-76
2022/03/27 12:04:51;;;;;;;23.10;14.33;;;;;;;;;;5034235;28;20421;-77
2022/03/27 12:07:17;;;;;;;23.83;13.77;;;;;;;;;;5034901;28;20796;-76
2022/03/27 12:09:43;;;;;;;25.00;14.80;;;;;;;;;;5034479;28;20403;-76
2022/03/27 12:12:14;;;;;;;20.57;12.50;;;;;;;;;;5034438;28;20472;-77
2022/03/27 12:14:59;;;;;;;18.83;13.13;;;;;;;;;;5034517;28;20442;-76
2022/03/27 12:17:28;;;;;;;24.00;14.63;;;;;;;;;;5035063;28;20403;-76
2022/03/27 12:19:57;;;;;;;22.67;13.20;;;;;;;;;;5034218;28;20747;-76
2022/03/27 12:22:34;;;;;;;21.47;13.40;;;;;;;;;;5016428;28;20923;-76
2022/03/27 12:25:00;;;;;;;23.00;14.23;;;;;;;;;;5000456;28;20461;-76
2022/03/27 12:30:11;;;;;;;17.10;12.47;;;;;;;;;;5034627;28;20397;-76
2022/03/27 12:32:38;;;;;;;20.30;14.57;;;;;;;;;;5033873;28;20398;-77
2022/03/27 12:35:06;;;;;;;19.80;13.10;;;;;;;;;;5033810;28;20556;-76
2022/03/27 12:37:33;;;;;;;20.40;13.23;;;;;;;;;;5016659;28;20410;-76
2022/03/27 12:40:10;;;;;;;20.43;12.60;;;;;;;;;;5033636;28;20915;-77
2022/03/27 12:42:39;;;;;;;26.87;14.10;;;;;;;;;;5034271;28;20463;-77
2022/03/27 12:45:14;;;;;;;21.07;12.97;;;;;;;;;;5033517;28;20439;-77
2022/03/27 12:47:41;;;;;;;20.37;12.40;;;;;;;;;;5033928;28;20386;-76
2022/03/27 12:50:09;;;;;;;16.60;12.30;;;;;;;;;;5016001;28;20789;-76
2022/03/27 12:52:43;;;;;;;20.20;13.00;;;;;;;;;;5033759;28;20410;-76
2022/03/27 12:55:10;;;;;;;25.07;14.00;;;;;;;;;;5033794;28;20842;-77
2022/03/27 12:57:52;;;;;;;20.60;12.30;;;;;;;;;;5033620;28;20424;-76
2022/03/27 13:00:19;;;;;;;21.53;13.30;;;;;;;;;;5015952;28;20437;-77
2022/03/27 13:02:45;;;;;;;21.20;13.70;;;;;;;;;;5033648;28;20406;-77
2022/03/27 13:05:11;;;;;;;23.43;13.53;;;;;;;;;;5033747;28;20433;-77
2022/03/27 13:07:53;;;;;;;24.57;13.00;;;;;;;;;;5033669;28;20416;-76
2022/03/27 13:10:19;;;;;;;19.20;12.90;;;;;;;;;;5033553;28;20906;-77
2022/03/27 13:12:45;;;;;;;21.30;13.13;;;;;;;;;;5034018;28;20434;-76
2022/03/27 13:15:12;;;;;;;21.63;13.60;;;;;;;;;;5034144;28;20838;-76
2022/03/27 13:17:38;;;;;;;23.13;13.63;;;;;;;;;;5033628;28;20798;-77
2022/03/27 13:20:04;;;;;;;20.27;13.30;;;;;;;;;;5033564;28;20410;-77
2022/03/27 13:22:30;;;;;;;18.30;13.57;;;;;;;;;;5033586;28;20406;-77
2022/03/27 13:24:56;;;;;;;22.20;12.17;;;;;;;;;;5033186;28;20942;-77
2022/03/27 13:27:22;;;;;;;18.43;13.03;;;;;;;;;;5033498;28;20407;-77
2022/03/27 13:29:48;;;;;;;21.83;13.07;;;;;;;;;;5033417;28;20425;-77
2022/03/27 13:32:14;;;;;;;18.23;12.50;;;;;;;;;;5033192;28;20968;-75
2022/03/27 13:34:40;;;;;;;22.40;13.10;;;;;;;;;;5033388;28;20950;-75
2022/03/27 13:37:06;;;;;;;20.70;12.53;;;;;;;;;;5033214;28;20407;-75
2022/03/27 13:39:33;;;;;;;23.90;14.40;;;;;;;;;;5033759;28;20794;-77
2022/03/27 13:44:43;;;;;;;21.73;13.23;;;;;;;;;;5033107;28;20895;-75
2022/03/27 13:47:11;;;;;;;20.40;12.80;;;;;;;;;;5033386;28;21033;-75
2022/03/27 13:49:37;;;;;;;20.43;12.70;;;;;;;;;;5033806;28;20805;-77
2022/03/27 13:52:03;;;;;;;29.47;12.87;;;;;;;;;;5034037;28;20766;-77
2022/03/27 13:54:29;;;;;;;21.57;13.57;;;;;;;;;;5037005;28;20458;-75
2022/03/27 13:56:56;;;;;;;25.20;14.10;;;;;;;;;;5037276;28;20426;-76
2022/03/27 13:59:23;;;;;;;19.87;12.77;;;;;;;;;;5037576;28;20398;-75
2022/03/27 14:01:49;;;;;;;21.93;13.03;;;;;;;;;;5037311;28;20422;-75
2022/03/27 14:04:16;;;;;;;20.23;12.40;;;;;;;;;;5036940;28;20437;-75
2022/03/27 14:06:43;;;;;;;17.87;12.47;;;;;;;;;;5036808;28;20430;-76
2022/03/27 14:09:10;;;;;;;19.67;12.27;;;;;;;;;;5037240;28;20415;-76
2022/03/27 14:11:36;;;;;;;17.00;10.80;;;;;;;;;;5036728;28;20414;-76
2022/03/27 14:14:03;;;;;;;18.53;11.70;;;;;;;;;;5019127;28;20454;-76
2022/03/27 14:16:29;;;;;;;16.90;12.87;;;;;;;;;;5036978;28;20469;-77
2022/03/27 14:18:55;;;;;;;24.77;12.63;;;;;;;;;;5036759;28;20434;-77
2022/03/27 14:21:22;;;;;;;21.90;13.00;;;;;;;;;;5036885;28;20398;-77
2022/03/27 14:23:48;;;;;;;20.07;11.40;;;;;;;;;;5036819;28;20544;-77
2022/03/27 14:26:14;;;;;;;18.93;12.20;;;;;;;;;;5036391;28;20433;-77
2022/03/27 14:28:41;;;;;;;17.87;11.60;;;;;;;;;;5018918;28;20418;-76
2022/03/27 14:31:07;;;;;;;19.17;12.30;;;;;;;;;;5036825;28;20837;-77
2022/03/27 14:33:34;;;;;;;19.27;11.67;;;;;;;;;;5036513;28;20545;-75